sensor_id;sensor_type;location;lat;lon;timestamp;P1;durP1;ratioP1;P2;durP2;ratioP2
37843;SDS011;63793;57.632;18.292;2023-08-30T00:01:11;2.55;;;1.75;;
37843;SDS011;63793;57.632;18.292;2023-08-30T00:03:38;4.57;;;1.95;;
37843;SDS011;63793;57.632;18.292;2023-08-30T00:06:06;6.05;;;2.38;;
37843;SDS011;63793;57.632;18.292;2023-08-30T00:08:34;2.08;;;1.98;;
37843;SDS011;63793;57.632;18.292;2023-08-30T00:11:01;5.30;;;2.72;;
37843;SDS011;63793;57.632;18.292;2023-08-30T00:13:29;3.47;;;2.90;;
37843;SDS011;63793;57.632;18.292;2023-08-30T00:15:57;2.50;;;2.30;;
37843;SDS011;63793;57.632;18.292;2023-08-30T00:18:25;3.08;;;2.45;;
37843;SDS011;63793;57.632;18.292;2023-08-30T00:20:51;2.33;;;2.15;;
37843;SDS011;63793;57.632;18.292;2023-08-30T00:23:19;2.60;;;2.40;;
37843;SDS011;63793;57.632;18.292;2023-08-30T00:25:46;2.35;;;2.15;;
37843;SDS011;63793;57.632;18.292;2023-08-30T00:28:13;2.35;;;2.22;;
37843;SDS011;63793;57.632;18.292;2023-08-30T00:30:40;3.70;;;2.15;;
37843;SDS011;63793;57.632;18.292;2023-08-30T00:33:07;1.92;;;1.83;;
37843;SDS011;63793;57.632;18.292;2023-08-30T00:35:34;2.95;;;2.22;;
37843;SDS011;63793;57.632;18.292;2023-08-30T00:38:01;2.13;;;1.92;;
37843;SDS011;63793;57.632;18.292;2023-08-30T00:40:28;1.58;;;1.48;;
37843;SDS011;63793;57.632;18.292;2023-08-30T00:42:56;1.63;;;1.52;;
37843;SDS011;63793;57.632;18.292;2023-08-30T00:45:23;1.70;;;1.60;;
37843;SDS011;63793;57.632;18.292;2023-08-30T00:47:50;9.10;;;2.72;;
37843;SDS011;63793;57.632;18.292;2023-08-30T00:50:17;3.63;;;2.08;;
37843;SDS011;63793;57.632;18.292;2023-08-30T00:52:44;7.50;;;2.47;;
37843;SDS011;63793;57.632;18.292;2023-08-30T00:55:11;3.20;;;2.22;;
37843;SDS011;63793;57.632;18.292;2023-08-30T00:57:39;3.13;;;2.80;;
37843;SDS011;63793;57.632;18.292;2023-08-30T01:00:06;3.08;;;2.88;;
37843;SDS011;63793;57.632;18.292;2023-08-30T01:02:33;4.78;;;3.03;;
37843;SDS011;63793;57.632;18.292;2023-08-30T01:05:02;2.33;;;2.13;;
37843;SDS011;63793;57.632;18.292;2023-08-30T01:07:29;2.42;;;2.22;;
37843;SDS011;63793;57.632;18.292;2023-08-30T01:09:56;3.35;;;1.95;;
37843;SDS011;63793;57.632;18.292;2023-08-30T01:12:47;1.90;;;1.80;;
37843;SDS011;63793;57.632;18.292;2023-08-30T01:15:21;1.70;;;1.30;;
37843;SDS011;63793;57.632;18.292;2023-08-30T01:17:50;2.75;;;2.50;;
37843;SDS011;63793;57.632;18.292;2023-08-30T01:20:19;2.47;;;1.73;;
37843;SDS011;63793;57.632;18.292;2023-08-30T01:22:59;2.30;;;2.10;;
37843;SDS011;63793;57.632;18.292;2023-08-30T01:28:05;2.53;;;1.98;;
37843;SDS011;63793;57.632;18.292;2023-08-30T01:30:34;3.40;;;2.10;;
37843;SDS011;63793;57.632;18.292;2023-08-30T01:33:04;2.33;;;2.08;;
37843;SDS011;63793;57.632;18.292;2023-08-30T01:35:32;1.80;;;1.55;;
37843;SDS011;63793;57.632;18.292;2023-08-30T01:38:02;2.58;;;2.38;;
37843;SDS011;63793;57.632;18.292;2023-08-30T01:40:36;1.85;;;1.75;;
37843;SDS011;63793;57.632;18.292;2023-08-30T01:43:06;2.20;;;2.00;;
37843;SDS011;63793;57.632;18.292;2023-08-30T01:45:35;2.65;;;1.98;;
37843;SDS011;63793;57.632;18.292;2023-08-30T01:48:06;2.05;;;1.90;;
37843;SDS011;63793;57.632;18.292;2023-08-30T01:50:39;1.85;;;1.60;;
37843;SDS011;63793;57.632;18.292;2023-08-30T01:53:07;1.60;;;1.25;;
37843;SDS011;63793;57.632;18.292;2023-08-30T01:55:36;1.95;;;1.80;;
37843;SDS011;63793;57.632;18.292;2023-08-30T01:58:05;1.98;;;1.88;;
37843;SDS011;63793;57.632;18.292;2023-08-30T02:00:34;1.85;;;1.75;;
37843;SDS011;63793;57.632;18.292;2023-08-30T02:03:09;2.03;;;0.82;;
37843;SDS011;63793;57.632;18.292;2023-08-30T02:05:39;1.10;;;0.88;;
37843;SDS011;63793;57.632;18.292;2023-08-30T02:08:26;1.08;;;0.98;;
37843;SDS011;63793;57.632;18.292;2023-08-30T02:10:56;1.48;;;1.00;;
37843;SDS011;63793;57.632;18.292;2023-08-30T02:13:28;1.23;;;1.15;;
37843;SDS011;63793;57.632;18.292;2023-08-30T02:15:56;1.40;;;1.30;;
37843;SDS011;63793;57.632;18.292;2023-08-30T02:18:27;2.35;;;1.35;;
37843;SDS011;63793;57.632;18.292;2023-08-30T02:20:56;3.25;;;1.02;;
37843;SDS011;63793;57.632;18.292;2023-08-30T02:23:24;2.05;;;1.95;;
37843;SDS011;63793;57.632;18.292;2023-08-30T02:25:56;2.72;;;1.58;;
37843;SDS011;63793;57.632;18.292;2023-08-30T02:28:23;2.15;;;1.45;;
37843;SDS011;63793;57.632;18.292;2023-08-30T02:30:52;1.48;;;1.35;;
37843;SDS011;63793;57.632;18.292;2023-08-30T02:33:19;4.50;;;1.20;;
37843;SDS011;63793;57.632;18.292;2023-08-30T02:35:46;1.73;;;1.35;;
37843;SDS011;63793;57.632;18.292;2023-08-30T02:38:13;1.38;;;0.90;;
37843;SDS011;63793;57.632;18.292;2023-08-30T02:40:40;2.88;;;0.80;;
37843;SDS011;63793;57.632;18.292;2023-08-30T02:43:07;2.42;;;1.20;;
37843;SDS011;63793;57.632;18.292;2023-08-30T02:45:34;0.98;;;0.88;;
37843;SDS011;63793;57.632;18.292;2023-08-30T02:48:01;1.00;;;0.90;;
37843;SDS011;63793;57.632;18.292;2023-08-30T02:50:28;1.23;;;0.50;;
37843;SDS011;63793;57.632;18.292;2023-08-30T02:52:55;2.40;;;1.15;;
37843;SDS011;63793;57.632;18.292;2023-08-30T02:55:22;1.10;;;0.57;;
37843;SDS011;63793;57.632;18.292;2023-08-30T02:57:49;1.85;;;0.73;;
37843;SDS011;63793;57.632;18.292;2023-08-30T03:00:16;1.42;;;1.33;;
37843;SDS011;63793;57.632;18.292;2023-08-30T03:02:46;5.57;;;1.30;;
37843;SDS011;63793;57.632;18.292;2023-08-30T03:05:13;2.13;;;1.65;;
37843;SDS011;63793;57.632;18.292;2023-08-30T03:07:40;2.05;;;0.88;;
37843;SDS011;63793;57.632;18.292;2023-08-30T03:10:07;1.83;;;1.73;;
37843;SDS011;63793;57.632;18.292;2023-08-30T03:12:36;1.95;;;1.05;;
37843;SDS011;63793;57.632;18.292;2023-08-30T03:15:03;0.82;;;0.82;;
37843;SDS011;63793;57.632;18.292;2023-08-30T03:17:31;1.05;;;0.95;;
37843;SDS011;63793;57.632;18.292;2023-08-30T03:19:58;3.28;;;1.08;;
37843;SDS011;63793;57.632;18.292;2023-08-30T03:22:28;0.60;;;0.55;;
37843;SDS011;63793;57.632;18.292;2023-08-30T03:24:54;1.83;;;0.73;;
37843;SDS011;63793;57.632;18.292;2023-08-30T03:27:21;2.75;;;0.82;;
37843;SDS011;63793;57.632;18.292;2023-08-30T03:29:48;1.48;;;0.93;;
37843;SDS011;63793;57.632;18.292;2023-08-30T03:32:16;1.48;;;0.73;;
37843;SDS011;63793;57.632;18.292;2023-08-30T03:34:47;1.65;;;0.85;;
37843;SDS011;63793;57.632;18.292;2023-08-30T03:37:16;3.20;;;1.00;;
37843;SDS011;63793;57.632;18.292;2023-08-30T03:39:43;1.15;;;0.80;;
37843;SDS011;63793;57.632;18.292;2023-08-30T03:42:10;1.20;;;1.00;;
37843;SDS011;63793;57.632;18.292;2023-08-30T03:44:37;1.17;;;0.85;;
37843;SDS011;63793;57.632;18.292;2023-08-30T03:47:06;0.85;;;0.82;;
37843;SDS011;63793;57.632;18.292;2023-08-30T03:49:33;1.92;;;1.65;;
37843;SDS011;63793;57.632;18.292;2023-08-30T03:52:01;4.10;;;1.17;;
37843;SDS011;63793;57.632;18.292;2023-08-30T03:54:28;2.72;;;0.95;;
37843;SDS011;63793;57.632;18.292;2023-08-30T03:56:55;1.98;;;1.75;;
37843;SDS011;63793;57.632;18.292;2023-08-30T03:59:22;0.80;;;0.73;;
37843;SDS011;63793;57.632;18.292;2023-08-30T04:01:53;2.53;;;1.08;;
37843;SDS011;63793;57.632;18.292;2023-08-30T04:04:20;0.68;;;0.65;;
37843;SDS011;63793;57.632;18.292;2023-08-30T04:06:47;2.05;;;1.30;;
37843;SDS011;63793;57.632;18.292;2023-08-30T04:09:15;2.58;;;1.48;;
37843;SDS011;63793;57.632;18.292;2023-08-30T04:11:42;0.63;;;0.50;;
37843;SDS011;63793;57.632;18.292;2023-08-30T04:14:10;1.70;;;0.73;;
37843;SDS011;63793;57.632;18.292;2023-08-30T04:16:37;1.27;;;1.17;;
37843;SDS011;63793;57.632;18.292;2023-08-30T04:19:06;5.70;;;1.40;;
37843;SDS011;63793;57.632;18.292;2023-08-30T04:21:33;3.45;;;1.88;;
37843;SDS011;63793;57.632;18.292;2023-08-30T04:24:00;1.45;;;1.02;;
37843;SDS011;63793;57.632;18.292;2023-08-30T04:26:27;2.60;;;1.33;;
37843;SDS011;63793;57.632;18.292;2023-08-30T04:28:55;1.38;;;1.27;;
37843;SDS011;63793;57.632;18.292;2023-08-30T04:31:22;1.45;;;1.02;;
37843;SDS011;63793;57.632;18.292;2023-08-30T04:33:49;0.98;;;0.98;;
37843;SDS011;63793;57.632;18.292;2023-08-30T04:36:20;1.23;;;0.93;;
37843;SDS011;63793;57.632;18.292;2023-08-30T04:38:47;2.38;;;1.00;;
37843;SDS011;63793;57.632;18.292;2023-08-30T04:41:27;1.70;;;1.27;;
37843;SDS011;63793;57.632;18.292;2023-08-30T04:43:54;2.13;;;1.92;;
37843;SDS011;63793;57.632;18.292;2023-08-30T04:46:21;2.40;;;0.93;;
37843;SDS011;63793;57.632;18.292;2023-08-30T04:48:48;2.88;;;1.05;;
37843;SDS011;63793;57.632;18.292;2023-08-30T04:51:16;2.13;;;0.90;;
37843;SDS011;63793;57.632;18.292;2023-08-30T04:53:43;7.45;;;1.10;;
37843;SDS011;63793;57.632;18.292;2023-08-30T04:56:12;1.75;;;1.15;;
37843;SDS011;63793;57.632;18.292;2023-08-30T04:58:40;1.20;;;1.10;;
37843;SDS011;63793;57.632;18.292;2023-08-30T05:01:09;4.80;;;0.85;;
37843;SDS011;63793;57.632;18.292;2023-08-30T05:03:39;5.27;;;1.00;;
37843;SDS011;63793;57.632;18.292;2023-08-30T05:08:36;1.80;;;1.40;;
37843;SDS011;63793;57.632;18.292;2023-08-30T05:11:03;3.60;;;1.40;;
37843;SDS011;63793;57.632;18.292;2023-08-30T05:13:33;2.35;;;1.00;;
37843;SDS011;63793;57.632;18.292;2023-08-30T05:16:00;1.88;;;1.42;;
37843;SDS011;63793;57.632;18.292;2023-08-30T05:18:27;2.65;;;1.00;;
37843;SDS011;63793;57.632;18.292;2023-08-30T05:20:54;1.92;;;1.63;;
37843;SDS011;63793;57.632;18.292;2023-08-30T05:23:21;2.30;;;1.33;;
37843;SDS011;63793;57.632;18.292;2023-08-30T05:25:48;1.60;;;1.50;;
37843;SDS011;63793;57.632;18.292;2023-08-30T05:28:16;4.03;;;1.42;;
37843;SDS011;63793;57.632;18.292;2023-08-30T05:30:43;3.63;;;1.88;;
37843;SDS011;63793;57.632;18.292;2023-08-30T05:33:28;1.17;;;1.00;;
37843;SDS011;63793;57.632;18.292;2023-08-30T05:36:09;1.52;;;1.25;;
37843;SDS011;63793;57.632;18.292;2023-08-30T05:38:50;8.43;;;1.58;;
37843;SDS011;63793;57.632;18.292;2023-08-30T05:41:32;1.40;;;1.30;;
37843;SDS011;63793;57.632;18.292;2023-08-30T05:43:59;1.88;;;1.27;;
37843;SDS011;63793;57.632;18.292;2023-08-30T05:46:26;1.63;;;1.10;;
37843;SDS011;63793;57.632;18.292;2023-08-30T05:48:53;2.08;;;1.10;;
37843;SDS011;63793;57.632;18.292;2023-08-30T05:51:22;1.20;;;1.10;;
37843;SDS011;63793;57.632;18.292;2023-08-30T05:53:49;1.85;;;1.75;;
37843;SDS011;63793;57.632;18.292;2023-08-30T05:56:16;1.83;;;1.38;;
37843;SDS011;63793;57.632;18.292;2023-08-30T05:58:43;1.85;;;1.40;;
37843;SDS011;63793;57.632;18.292;2023-08-30T06:01:10;3.13;;;1.50;;
37843;SDS011;63793;57.632;18.292;2023-08-30T06:03:37;4.32;;;1.50;;
37843;SDS011;63793;57.632;18.292;2023-08-30T06:06:04;1.20;;;1.10;;
37843;SDS011;63793;57.632;18.292;2023-08-30T06:08:31;1.83;;;1.13;;
37843;SDS011;63793;57.632;18.292;2023-08-30T06:10:58;1.13;;;0.73;;
37843;SDS011;63793;57.632;18.292;2023-08-30T06:13:25;2.00;;;1.10;;
37843;SDS011;63793;57.632;18.292;2023-08-30T06:15:52;2.22;;;1.08;;
37843;SDS011;63793;57.632;18.292;2023-08-30T06:18:19;2.13;;;1.45;;
37843;SDS011;63793;57.632;18.292;2023-08-30T06:20:46;2.10;;;1.98;;
37843;SDS011;63793;57.632;18.292;2023-08-30T06:23:14;1.63;;;1.52;;
37843;SDS011;63793;57.632;18.292;2023-08-30T06:25:52;3.38;;;1.50;;
37843;SDS011;63793;57.632;18.292;2023-08-30T06:28:20;1.75;;;1.65;;
37843;SDS011;63793;57.632;18.292;2023-08-30T06:30:47;1.55;;;1.45;;
37843;SDS011;63793;57.632;18.292;2023-08-30T06:33:14;1.48;;;1.05;;
37843;SDS011;63793;57.632;18.292;2023-08-30T06:35:41;2.00;;;1.35;;
37843;SDS011;63793;57.632;18.292;2023-08-30T06:38:09;1.83;;;1.50;;
37843;SDS011;63793;57.632;18.292;2023-08-30T06:40:36;5.75;;;2.88;;
37843;SDS011;63793;57.632;18.292;2023-08-30T06:43:08;1.25;;;1.15;;
37843;SDS011;63793;57.632;18.292;2023-08-30T06:45:35;1.33;;;1.23;;
37843;SDS011;63793;57.632;18.292;2023-08-30T06:48:03;2.85;;;1.42;;
37843;SDS011;63793;57.632;18.292;2023-08-30T06:50:31;2.00;;;1.30;;
37843;SDS011;63793;57.632;18.292;2023-08-30T06:52:58;4.40;;;1.10;;
37843;SDS011;63793;57.632;18.292;2023-08-30T06:55:27;2.15;;;1.13;;
37843;SDS011;63793;57.632;18.292;2023-08-30T06:57:54;1.80;;;1.70;;
37843;SDS011;63793;57.632;18.292;2023-08-30T07:00:21;0.65;;;0.65;;
37843;SDS011;63793;57.632;18.292;2023-08-30T07:02:48;5.32;;;1.67;;
37843;SDS011;63793;57.632;18.292;2023-08-30T07:05:15;6.20;;;1.17;;
37843;SDS011;63793;57.632;18.292;2023-08-30T07:07:42;2.75;;;0.75;;
37843;SDS011;63793;57.632;18.292;2023-08-30T07:10:09;2.17;;;0.93;;
37843;SDS011;63793;57.632;18.292;2023-08-30T07:12:36;2.55;;;1.52;;
37843;SDS011;63793;57.632;18.292;2023-08-30T07:15:03;1.38;;;1.05;;
37843;SDS011;63793;57.632;18.292;2023-08-30T07:17:30;2.25;;;0.98;;
37843;SDS011;63793;57.632;18.292;2023-08-30T07:20:16;0.82;;;0.82;;
37843;SDS011;63793;57.632;18.292;2023-08-30T07:22:43;4.80;;;1.60;;
37843;SDS011;63793;57.632;18.292;2023-08-30T07:25:10;0.95;;;0.95;;
37843;SDS011;63793;57.632;18.292;2023-08-30T07:27:38;2.58;;;0.98;;
37843;SDS011;63793;57.632;18.292;2023-08-30T07:30:05;1.48;;;0.98;;
37843;SDS011;63793;57.632;18.292;2023-08-30T07:32:33;1.50;;;1.00;;
37843;SDS011;63793;57.632;18.292;2023-08-30T07:35:02;1.85;;;1.00;;
37843;SDS011;63793;57.632;18.292;2023-08-30T07:37:30;4.43;;;1.00;;
37843;SDS011;63793;57.632;18.292;2023-08-30T07:39:57;0.82;;;0.60;;
37843;SDS011;63793;57.632;18.292;2023-08-30T07:42:24;0.77;;;0.68;;
37843;SDS011;63793;57.632;18.292;2023-08-30T07:44:51;1.48;;;0.70;;
37843;SDS011;63793;57.632;18.292;2023-08-30T07:47:18;1.48;;;0.88;;
37843;SDS011;63793;57.632;18.292;2023-08-30T07:49:45;1.98;;;0.80;;
37843;SDS011;63793;57.632;18.292;2023-08-30T07:52:12;1.35;;;0.80;;
37843;SDS011;63793;57.632;18.292;2023-08-30T07:54:39;3.35;;;0.65;;
37843;SDS011;63793;57.632;18.292;2023-08-30T07:57:07;1.15;;;0.85;;
37843;SDS011;63793;57.632;18.292;2023-08-30T07:59:37;0.50;;;0.50;;
37843;SDS011;63793;57.632;18.292;2023-08-30T08:02:05;5.72;;;1.30;;
37843;SDS011;63793;57.632;18.292;2023-08-30T08:04:34;1.42;;;0.80;;
37843;SDS011;63793;57.632;18.292;2023-08-30T08:07:02;1.02;;;0.80;;
37843;SDS011;63793;57.632;18.292;2023-08-30T08:09:30;2.33;;;0.98;;
37843;SDS011;63793;57.632;18.292;2023-08-30T08:11:58;3.03;;;1.08;;
37843;SDS011;63793;57.632;18.292;2023-08-30T08:14:25;1.10;;;0.70;;
37843;SDS011;63793;57.632;18.292;2023-08-30T08:16:52;1.10;;;0.93;;
37843;SDS011;63793;57.632;18.292;2023-08-30T08:19:19;0.98;;;0.93;;
37843;SDS011;63793;57.632;18.292;2023-08-30T08:21:51;0.70;;;0.65;;
37843;SDS011;63793;57.632;18.292;2023-08-30T08:24:20;3.65;;;0.63;;
37843;SDS011;63793;57.632;18.292;2023-08-30T08:26:47;1.23;;;1.00;;
37843;SDS011;63793;57.632;18.292;2023-08-30T08:29:14;1.65;;;0.93;;
37843;SDS011;63793;57.632;18.292;2023-08-30T08:31:41;2.47;;;1.15;;
37843;SDS011;63793;57.632;18.292;2023-08-30T08:34:11;1.38;;;0.60;;
37843;SDS011;63793;57.632;18.292;2023-08-30T08:36:40;2.53;;;0.70;;
37843;SDS011;63793;57.632;18.292;2023-08-30T08:39:08;1.10;;;0.85;;
37843;SDS011;63793;57.632;18.292;2023-08-30T08:41:40;2.33;;;1.35;;
37843;SDS011;63793;57.632;18.292;2023-08-30T08:44:08;3.35;;;1.30;;
37843;SDS011;63793;57.632;18.292;2023-08-30T08:46:37;2.50;;;1.70;;
37843;SDS011;63793;57.632;18.292;2023-08-30T08:49:11;2.53;;;1.38;;
37843;SDS011;63793;57.632;18.292;2023-08-30T08:51:40;1.13;;;1.02;;
37843;SDS011;63793;57.632;18.292;2023-08-30T08:54:10;1.65;;;1.55;;
37843;SDS011;63793;57.632;18.292;2023-08-30T08:56:38;2.05;;;1.17;;
37843;SDS011;63793;57.632;18.292;2023-08-30T08:59:06;1.75;;;1.40;;
37843;SDS011;63793;57.632;18.292;2023-08-30T09:01:35;1.60;;;0.70;;
37843;SDS011;63793;57.632;18.292;2023-08-30T09:04:05;1.67;;;0.70;;
37843;SDS011;63793;57.632;18.292;2023-08-30T09:06:35;0.40;;;0.40;;
37843;SDS011;63793;57.632;18.292;2023-08-30T09:09:03;1.55;;;0.63;;
37843;SDS011;63793;57.632;18.292;2023-08-30T09:11:31;2.97;;;0.63;;
37843;SDS011;63793;57.632;18.292;2023-08-30T09:14:15;1.27;;;0.60;;
37843;SDS011;63793;57.632;18.292;2023-08-30T09:16:53;0.80;;;0.45;;
37843;SDS011;63793;57.632;18.292;2023-08-30T09:19:24;0.60;;;0.55;;
37843;SDS011;63793;57.632;18.292;2023-08-30T09:21:54;1.02;;;0.47;;
37843;SDS011;63793;57.632;18.292;2023-08-30T09:24:22;0.88;;;0.77;;
37843;SDS011;63793;57.632;18.292;2023-08-30T09:26:53;2.92;;;0.50;;
37843;SDS011;63793;57.632;18.292;2023-08-30T09:29:21;2.03;;;0.70;;
37843;SDS011;63793;57.632;18.292;2023-08-30T09:31:51;1.55;;;0.60;;
37843;SDS011;63793;57.632;18.292;2023-08-30T09:34:23;1.17;;;0.60;;
37843;SDS011;63793;57.632;18.292;2023-08-30T09:36:52;1.65;;;0.57;;
37843;SDS011;63793;57.632;18.292;2023-08-30T09:39:19;2.45;;;1.15;;
37843;SDS011;63793;57.632;18.292;2023-08-30T09:41:48;3.38;;;0.60;;
37843;SDS011;63793;57.632;18.292;2023-08-30T09:44:17;0.60;;;0.40;;
37843;SDS011;63793;57.632;18.292;2023-08-30T09:46:46;1.15;;;0.63;;
37843;SDS011;63793;57.632;18.292;2023-08-30T09:49:18;1.98;;;0.43;;
37843;SDS011;63793;57.632;18.292;2023-08-30T09:51:50;2.22;;;0.93;;
37843;SDS011;63793;57.632;18.292;2023-08-30T09:54:20;3.25;;;0.50;;
37843;SDS011;63793;57.632;18.292;2023-08-30T09:57:04;1.48;;;0.30;;
37843;SDS011;63793;57.632;18.292;2023-08-30T09:59:32;2.22;;;0.35;;
37843;SDS011;63793;57.632;18.292;2023-08-30T10:01:59;0.57;;;0.40;;
37843;SDS011;63793;57.632;18.292;2023-08-30T10:04:27;0.95;;;0.50;;
37843;SDS011;63793;57.632;18.292;2023-08-30T10:06:56;1.92;;;0.35;;
37843;SDS011;63793;57.632;18.292;2023-08-30T10:11:55;2.42;;;0.60;;
37843;SDS011;63793;57.632;18.292;2023-08-30T10:14:24;0.60;;;0.60;;
37843;SDS011;63793;57.632;18.292;2023-08-30T10:16:51;1.00;;;0.63;;
37843;SDS011;63793;57.632;18.292;2023-08-30T10:19:27;0.82;;;0.45;;
37843;SDS011;63793;57.632;18.292;2023-08-30T10:24:53;2.90;;;0.50;;
37843;SDS011;63793;57.632;18.292;2023-08-30T10:27:38;1.15;;;0.65;;
37843;SDS011;63793;57.632;18.292;2023-08-30T10:30:09;2.90;;;0.52;;
37843;SDS011;63793;57.632;18.292;2023-08-30T10:32:40;1.27;;;0.40;;
37843;SDS011;63793;57.632;18.292;2023-08-30T10:35:14;0.60;;;0.45;;
37843;SDS011;63793;57.632;18.292;2023-08-30T10:37:53;1.33;;;0.80;;
37843;SDS011;63793;57.632;18.292;2023-08-30T10:40:22;1.15;;;0.80;;
37843;SDS011;63793;57.632;18.292;2023-08-30T10:42:58;1.05;;;0.70;;
37843;SDS011;63793;57.632;18.292;2023-08-30T10:45:26;0.75;;;0.40;;
37843;SDS011;63793;57.632;18.292;2023-08-30T10:47:56;1.27;;;0.60;;
37843;SDS011;63793;57.632;18.292;2023-08-30T10:50:31;1.30;;;0.40;;
37843;SDS011;63793;57.632;18.292;2023-08-30T10:52:59;4.32;;;1.05;;
37843;SDS011;63793;57.632;18.292;2023-08-30T10:55:26;4.05;;;0.50;;
37843;SDS011;63793;57.632;18.292;2023-08-30T10:58:00;1.42;;;0.40;;
37843;SDS011;63793;57.632;18.292;2023-08-30T11:00:29;3.40;;;0.60;;
37843;SDS011;63793;57.632;18.292;2023-08-30T11:02:57;1.17;;;0.30;;
37843;SDS011;63793;57.632;18.292;2023-08-30T11:05:25;1.20;;;0.57;;
37843;SDS011;63793;57.632;18.292;2023-08-30T11:07:52;0.85;;;0.80;;
37843;SDS011;63793;57.632;18.292;2023-08-30T11:10:20;1.42;;;0.22;;
37843;SDS011;63793;57.632;18.292;2023-08-30T11:12:48;0.65;;;0.30;;
37843;SDS011;63793;57.632;18.292;2023-08-30T11:15:16;0.98;;;0.80;;
37843;SDS011;63793;57.632;18.292;2023-08-30T11:17:45;1.48;;;0.40;;
37843;SDS011;63793;57.632;18.292;2023-08-30T11:20:13;1.40;;;1.30;;
37843;SDS011;63793;57.632;18.292;2023-08-30T11:22:44;1.95;;;0.50;;
37843;SDS011;63793;57.632;18.292;2023-08-30T11:25:15;0.90;;;0.38;;
37843;SDS011;63793;57.632;18.292;2023-08-30T11:27:43;1.15;;;0.85;;
37843;SDS011;63793;57.632;18.292;2023-08-30T11:30:11;1.33;;;0.50;;
37843;SDS011;63793;57.632;18.292;2023-08-30T11:32:39;0.47;;;0.30;;
37843;SDS011;63793;57.632;18.292;2023-08-30T11:35:09;2.42;;;0.47;;
37843;SDS011;63793;57.632;18.292;2023-08-30T11:37:36;1.48;;;0.60;;
37843;SDS011;63793;57.632;18.292;2023-08-30T11:40:03;1.90;;;0.80;;
37843;SDS011;63793;57.632;18.292;2023-08-30T11:42:32;2.40;;;0.75;;
37843;SDS011;63793;57.632;18.292;2023-08-30T11:45:00;0.63;;;0.30;;
37843;SDS011;63793;57.632;18.292;2023-08-30T11:47:27;2.85;;;0.90;;
37843;SDS011;63793;57.632;18.292;2023-08-30T11:49:55;2.05;;;0.43;;
37843;SDS011;63793;57.632;18.292;2023-08-30T11:52:23;1.45;;;1.02;;
37843;SDS011;63793;57.632;18.292;2023-08-30T11:54:51;0.40;;;0.40;;
37843;SDS011;63793;57.632;18.292;2023-08-30T11:57:19;1.45;;;0.98;;
37843;SDS011;63793;57.632;18.292;2023-08-30T11:59:47;2.08;;;1.48;;
37843;SDS011;63793;57.632;18.292;2023-08-30T12:02:15;0.90;;;0.82;;
37843;SDS011;63793;57.632;18.292;2023-08-30T12:04:43;0.60;;;0.50;;
37843;SDS011;63793;57.632;18.292;2023-08-30T12:07:25;0.40;;;0.40;;
37843;SDS011;63793;57.632;18.292;2023-08-30T12:10:09;4.07;;;0.65;;
37843;SDS011;63793;57.632;18.292;2023-08-30T12:12:37;0.80;;;0.65;;
37843;SDS011;63793;57.632;18.292;2023-08-30T12:15:08;1.17;;;0.63;;
37843;SDS011;63793;57.632;18.292;2023-08-30T12:17:36;2.00;;;0.45;;
37843;SDS011;63793;57.632;18.292;2023-08-30T12:20:03;0.70;;;0.30;;
37843;SDS011;63793;57.632;18.292;2023-08-30T12:22:37;1.13;;;0.80;;
37843;SDS011;63793;57.632;18.292;2023-08-30T12:25:20;2.15;;;0.50;;
37843;SDS011;63793;57.632;18.292;2023-08-30T12:27:50;1.02;;;0.63;;
37843;SDS011;63793;57.632;18.292;2023-08-30T12:30:17;1.05;;;0.47;;
37843;SDS011;63793;57.632;18.292;2023-08-30T12:32:44;1.65;;;0.60;;
37843;SDS011;63793;57.632;18.292;2023-08-30T12:35:12;1.38;;;0.40;;
37843;SDS011;63793;57.632;18.292;2023-08-30T12:37:39;0.75;;;0.50;;
37843;SDS011;63793;57.632;18.292;2023-08-30T12:40:06;0.55;;;0.50;;
37843;SDS011;63793;57.632;18.292;2023-08-30T12:42:33;2.67;;;0.43;;
37843;SDS011;63793;57.632;18.292;2023-08-30T12:45:00;0.28;;;0.22;;
37843;SDS011;63793;57.632;18.292;2023-08-30T12:47:28;4.35;;;1.15;;
37843;SDS011;63793;57.632;18.292;2023-08-30T12:49:55;0.93;;;0.47;;
37843;SDS011;63793;57.632;18.292;2023-08-30T12:52:22;2.72;;;0.75;;
37843;SDS011;63793;57.632;18.292;2023-08-30T12:54:49;0.77;;;0.50;;
37843;SDS011;63793;57.632;18.292;2023-08-30T12:57:18;1.17;;;0.43;;
37843;SDS011;63793;57.632;18.292;2023-08-30T12:59:45;4.13;;;0.35;;
37843;SDS011;63793;57.632;18.292;2023-08-30T13:02:13;2.28;;;0.65;;
37843;SDS011;63793;57.632;18.292;2023-08-30T13:04:40;1.55;;;0.40;;
37843;SDS011;63793;57.632;18.292;2023-08-30T13:07:06;2.00;;;0.73;;
37843;SDS011;63793;57.632;18.292;2023-08-30T13:09:33;1.05;;;0.65;;
37843;SDS011;63793;57.632;18.292;2023-08-30T13:12:00;1.80;;;0.50;;
37843;SDS011;63793;57.632;18.292;2023-08-30T13:14:27;0.52;;;0.30;;
37843;SDS011;63793;57.632;18.292;2023-08-30T13:16:54;0.38;;;0.20;;
37843;SDS011;63793;57.632;18.292;2023-08-30T13:19:21;1.15;;;0.35;;
37843;SDS011;63793;57.632;18.292;2023-08-30T13:21:48;1.13;;;0.47;;
37843;SDS011;63793;57.632;18.292;2023-08-30T13:24:15;0.32;;;0.32;;
37843;SDS011;63793;57.632;18.292;2023-08-30T13:26:42;0.40;;;0.30;;
37843;SDS011;63793;57.632;18.292;2023-08-30T13:29:09;2.03;;;1.20;;
37843;SDS011;63793;57.632;18.292;2023-08-30T13:31:36;0.40;;;0.40;;
37843;SDS011;63793;57.632;18.292;2023-08-30T13:34:03;0.75;;;0.68;;
37843;SDS011;63793;57.632;18.292;2023-08-30T13:36:30;1.15;;;0.32;;
37843;SDS011;63793;57.632;18.292;2023-08-30T13:38:58;0.32;;;0.30;;
37843;SDS011;63793;57.632;18.292;2023-08-30T13:41:25;0.30;;;0.30;;
37843;SDS011;63793;57.632;18.292;2023-08-30T13:43:52;0.45;;;0.45;;
37843;SDS011;63793;57.632;18.292;2023-08-30T13:46:23;1.15;;;0.40;;
37843;SDS011;63793;57.632;18.292;2023-08-30T13:48:50;1.65;;;0.30;;
37843;SDS011;63793;57.632;18.292;2023-08-30T13:51:23;0.60;;;0.38;;
37843;SDS011;63793;57.632;18.292;2023-08-30T13:53:51;1.73;;;0.28;;
37843;SDS011;63793;57.632;18.292;2023-08-30T13:56:19;0.45;;;0.40;;
37843;SDS011;63793;57.632;18.292;2023-08-30T13:58:46;0.52;;;0.50;;
37843;SDS011;63793;57.632;18.292;2023-08-30T14:01:13;0.50;;;0.47;;
37843;SDS011;63793;57.632;18.292;2023-08-30T14:03:40;0.32;;;0.30;;
37843;SDS011;63793;57.632;18.292;2023-08-30T14:06:07;1.38;;;0.50;;
37843;SDS011;63793;57.632;18.292;2023-08-30T14:08:35;6.50;;;0.75;;
37843;SDS011;63793;57.632;18.292;2023-08-30T14:11:02;0.30;;;0.30;;
37843;SDS011;63793;57.632;18.292;2023-08-30T14:13:31;0.95;;;0.50;;
37843;SDS011;63793;57.632;18.292;2023-08-30T14:16:02;1.42;;;0.63;;
37843;SDS011;63793;57.632;18.292;2023-08-30T14:18:32;0.38;;;0.32;;
37843;SDS011;63793;57.632;18.292;2023-08-30T14:20:59;2.95;;;0.75;;
37843;SDS011;63793;57.632;18.292;2023-08-30T14:23:27;8.90;;;0.80;;
37843;SDS011;63793;57.632;18.292;2023-08-30T14:25:58;2.05;;;1.00;;
37843;SDS011;63793;57.632;18.292;2023-08-30T14:28:27;2.08;;;1.30;;
37843;SDS011;63793;57.632;18.292;2023-08-30T14:30:54;2.05;;;0.88;;
37843;SDS011;63793;57.632;18.292;2023-08-30T14:33:21;0.98;;;0.70;;
37843;SDS011;63793;57.632;18.292;2023-08-30T14:35:48;1.58;;;0.68;;
37843;SDS011;63793;57.632;18.292;2023-08-30T14:38:15;2.95;;;0.90;;
37843;SDS011;63793;57.632;18.292;2023-08-30T14:40:41;1.65;;;0.70;;
37843;SDS011;63793;57.632;18.292;2023-08-30T14:43:08;1.13;;;0.77;;
37843;SDS011;63793;57.632;18.292;2023-08-30T14:45:35;0.60;;;0.60;;
37843;SDS011;63793;57.632;18.292;2023-08-30T14:48:02;1.25;;;1.10;;
37843;SDS011;63793;57.632;18.292;2023-08-30T14:50:30;0.60;;;0.52;;
37843;SDS011;63793;57.632;18.292;2023-08-30T14:52:57;3.88;;;0.90;;